To NAV CANADA Home Page Login to a new session Search on AWWS site Disclaimer Vers la page française équivalente Tips FAQ What's new on the site To the Forecasts and Observations / NOTAM section To "File a Flight Plan" website Publications and other links Update of the User's profile FIC Telephone Numbers My Weather Data Folder Route Weather Data Regional Weather Data Local Weather Data To the Forecasts and Observations / NOTAM section
Request Generated 07/18/2019 at 15:14:58 UTC . Weather information available at that time is displayed.

METAR/TAF

KITCHENER/WATERLOO/ON    (show WxCam)

METAR CYKF 181500Z AUTO 18006KT 140V200 9SM BKN013 OVC018 24/21 A2996 RMK SLP144 DENSITY ALT 2200FT=
METAR CYKF 181400Z AUTO 11007KT 9SM OVC012 23/21 A2997 RMK SLP146 DENSITY ALT 2100FT=
SPECI CYKF 181308Z AUTO 13005KT 7SM BKN010 OVC013 22/21 A2997 RMK SLP145 DENSITY ALT 2000FT=
METAR CYKF 181300Z AUTO 10006KT 6SM BR OVC008 22/21 A2998 RMK SLP148 DENSITY ALT 2000FT=

TAF CYKF 181338Z 1814/1902 13006KT P6SM BKN015 TEMPO 1814/1816 BKN025
FM181600 18006KT P6SM BKN030
FM181800 20008KT P6SM FEW040
RMK FCST BASED ON AUTO OBS. NXT FCST BY 182000Z=

BORDEN/ON    

METAR CYBN 181500Z AUTO 18008KT 130V190 9SM BKN019 BKN036 25/20 A2994 RMK SLP136=
METAR CYBN 181400Z AUTO 19007KT 160V220 9SM OVC016 24/20 A2995 RMK SLP139=
METAR CYBN 181300Z AUTO 14007KT 9SM BKN010 24/20 A2994 RMK SLP137=

TAF AMD CYBN 181411Z 1814/1824 VRB03KT P6SM FEW015 TEMPO 1814/1816
OVC015
FM181700 16008KT P6SM SCT050 SCT200
FM182000 22012KT P6SM BKN040 BKN200 TEMPO 1820/1824 P6SM -SHRA
BKN030 BKN120
RMK FCST BASED ON AUTO OBS. NXT FCST BY 181800Z=

MUSKOKA/ON    (show WxCam)

METAR CYQA 181500Z AUTO 15010KT 9SM CLR 25/17 A2994 RMK SLP138 DENSITY ALT 2200FT=
METAR CYQA 181400Z AUTO 14009KT 9SM CLR 23/14 A2994 RMK PRESFR SLP139 DENSITY ALT 2000FT=
METAR CYQA 181300Z AUTO 12007KT 090V150 9SM CLR 21/14 A2996 RMK SLP145 DENSITY ALT 1800FT=

TAF CYQA 181338Z 1814/1902 12007KT P6SM SKC
FM181600 18008KT P6SM FEW030 BKN250
FM182300 17010KT P6SM SCT060 BKN170 BKN250 TEMPO 1823/1902 BKN060
RMK FCST BASED ON AUTO OBS. NXT FCST BY 182000Z=

HAMILTON/ON    

METAR CYHM 181500Z 00000KT 4SM BR BKN010 OVC018 23/22 A2997 RMK CU5SC3 SLP147 DENSITY ALT 1900FT=
METAR CYHM 181400Z 06004KT 2 1/2SM BR OVC004 22/22 A2996 RMK FG3ST5 SLP144 DENSITY ALT 1800FT=
SPECI CYHM 181332Z 07005KT 040V110 1 3/4SM BR OVC003 22/22 A2996 RMK FG3ST5 SLP146 DENSITY ALT 1700FT=
METAR CYHM 181300Z 04007KT 1SM R12/P6000FT/N -DZ BR OVC003 21/21 A2998 RMK FG4ST4 SLP150 DENSITY ALT 1700FT=

TAF AMD CYHM 181511Z 1815/1912 VRB03KT P6SM BKN015 TEMPO 1815/1816
4SM BR
FM181600 VRB03KT P6SM BKN030 TEMPO 1816/1818 BKN020
FM182000 20012KT P6SM FEW040 TEMPO 1820/1824 P6SM VCTS SCT040CB
FM190000 19009KT P6SM FEW040
BECMG 1908/1910 22010KT
RMK NXT FCST BY 181800Z=

WIARTON/ON    

METAR CYVV 181500Z 18009KT 15SM FEW016 BKN050 25/19 A2992 RMK CF1SC7 CF TR WND ESTD SLP132 DENSITY ALT 2100FT=
METAR CYVV 181400Z 18009KT 15SM BKN060 24/20 A2992 RMK SC7 WND ESTD SLP131 DENSITY ALT 2000FT=
METAR CYVV 181300Z 18005KT 15SM BKN080 BKN150 22/19 A2993 RMK AC6AC1 WND ESTD SLP133 DENSITY ALT 1700FT=

TAF CYVV 181338Z 1814/1823 18005KT P6SM BKN080
BECMG 1815/1817 24006KT
FM181700 26006KT P6SM FEW050
FM182100 22012KT P6SM BKN160
RMK NXT FCST BY 182000Z=

SARNIA (CHRIS HADFIELD)/ON    (show WxCam)

METAR CYZR 181500Z AUTO 21008KT 150V250 9SM FEW230 28/19 A2993 RMK SLP134 DENSITY ALT 2200FT=
METAR CYZR 181400Z AUTO 17007KT 9SM CLR 26/20 A2993 RMK SLP135 DENSITY ALT 1900FT=
METAR CYZR 181300Z AUTO 16007KT 9SM CLR 24/20 A2993 RMK SLP136 DENSITY ALT 1600FT=

TAF CYZR 181338Z 1814/1902 16008KT P6SM SKC
FM181700 20012KT P6SM FEW040 BKN240
RMK FCST BASED ON AUTO OBS. NXT FCST BY 182000Z=

LONDON/ON    

METAR CYXU 181500Z 16006KT 8SM BKN014 BKN028 25/23 A2996 RMK SC6SC1 SLP143 DENSITY ALT 2200FT=
SPECI CYXU 181442Z 14006KT 100V170 8SM SCT010 OVC018 25/22 A2996 RMK SF3SC5 SLP141 DENSITY ALT 2200FT=
SPECI CYXU 181418Z 13005KT 8SM OVC010 25/22 A2996 RMK SF8 SLP143 DENSITY ALT 2200FT=
METAR CYXU 181400Z 17008KT 130V190 8SM OVC007 24/22 A2995 RMK SF8 SLP141 DENSITY ALT 2200FT=
METAR CYXU 181300Z 12008KT 8SM BKN008 24/22 A2996 RMK SF7 SLP142 DENSITY ALT 2100FT=

TAF AMD CYXU 181408Z 1814/1912 17008KT P6SM OVC007 TEMPO 1814/1816
OVC012
FM181600 17008KT P6SM OVC015 TEMPO 1816/1818 BKN025
FM181800 21010KT P6SM SCT040
FM182000 20012G22KT P6SM SCT040 TEMPO 1820/1824 P6SM VCTS
SCT050CB
FM190000 18008KT P6SM FEW040
BECMG 1904/1906 21008KT
RMK NXT FCST BY 181800Z=

TORONTO/BILLY BISHOP TORONTO CITY AIRPORT/ON    (show WxCam)

METAR CYTZ 181300Z AUTO 07009KT 9SM OVC030 22/19 A2996 RMK SLP146 DENSITY ALT 1000FT=
METAR CYTZ 181200Z AUTO 07012KT 9SM OVC030 21/19 A2994 RMK SLP140 DENSITY ALT 1000FT=

TAF CYTZ 181338Z 1814/1914 07010KT P6SM OVC030
FM181700 18005KT P6SM SCT030
FM182100 18010KT P6SM SKC
FM190700 21008KT P6SM SCT040
FM191200 23010KT P6SM SCT030
RMK FCST BASED ON AUTO OBS. NXT FCST BY 182000Z=
Your time UTC time
Weather data provided by Environment Canada and NAV CANADA